sensor_id;sensor_type;location;lat;lon;timestamp;P1;durP1;ratioP1;P2;durP2;ratioP2
56567;SDS011;42456;49.956;20.004;2023-02-28T00:01:26;16.90;;;7.60;;
56567;SDS011;42456;49.956;20.004;2023-02-28T00:04:15;18.00;;;8.20;;
56567;SDS011;42456;49.956;20.004;2023-02-28T00:06:42;21.90;;;9.30;;
56567;SDS011;42456;49.956;20.004;2023-02-28T00:09:09;18.90;;;8.20;;
56567;SDS011;42456;49.956;20.004;2023-02-28T00:11:36;21.90;;;9.30;;
56567;SDS011;42456;49.956;20.004;2023-02-28T00:14:04;19.70;;;8.50;;
56567;SDS011;42456;49.956;20.004;2023-02-28T00:16:31;20.30;;;8.50;;
56567;SDS011;42456;49.956;20.004;2023-02-28T00:18:58;19.60;;;9.00;;
56567;SDS011;42456;49.956;20.004;2023-02-28T00:21:25;22.30;;;9.30;;
56567;SDS011;42456;49.956;20.004;2023-02-28T00:23:53;21.70;;;8.90;;
56567;SDS011;42456;49.956;20.004;2023-02-28T00:26:20;20.00;;;8.70;;
56567;SDS011;42456;49.956;20.004;2023-02-28T00:28:47;22.10;;;10.10;;
56567;SDS011;42456;49.956;20.004;2023-02-28T00:31:14;17.90;;;7.20;;
56567;SDS011;42456;49.956;20.004;2023-02-28T00:33:41;19.60;;;8.60;;
56567;SDS011;42456;49.956;20.004;2023-02-28T00:36:09;21.20;;;8.70;;
56567;SDS011;42456;49.956;20.004;2023-02-28T00:38:38;20.30;;;9.10;;
56567;SDS011;42456;49.956;20.004;2023-02-28T00:41:06;19.30;;;8.60;;
56567;SDS011;42456;49.956;20.004;2023-02-28T00:43:34;18.10;;;8.30;;
56567;SDS011;42456;49.956;20.004;2023-02-28T00:46:02;19.00;;;8.20;;
56567;SDS011;42456;49.956;20.004;2023-02-28T00:48:30;17.70;;;7.40;;
56567;SDS011;42456;49.956;20.004;2023-02-28T00:50:57;19.00;;;8.30;;
56567;SDS011;42456;49.956;20.004;2023-02-28T00:53:24;18.30;;;7.90;;
56567;SDS011;42456;49.956;20.004;2023-02-28T00:55:51;19.70;;;7.70;;
56567;SDS011;42456;49.956;20.004;2023-02-28T00:58:18;18.80;;;8.90;;
56567;SDS011;42456;49.956;20.004;2023-02-28T01:00:45;18.80;;;8.40;;
56567;SDS011;42456;49.956;20.004;2023-02-28T01:03:16;16.90;;;7.80;;
56567;SDS011;42456;49.956;20.004;2023-02-28T01:05:44;19.50;;;7.50;;
56567;SDS011;42456;49.956;20.004;2023-02-28T01:08:12;16.50;;;6.70;;
56567;SDS011;42456;49.956;20.004;2023-02-28T01:10:40;17.50;;;7.00;;
56567;SDS011;42456;49.956;20.004;2023-02-28T01:13:07;19.70;;;7.60;;
56567;SDS011;42456;49.956;20.004;2023-02-28T01:15:34;18.20;;;7.90;;
56567;SDS011;42456;49.956;20.004;2023-02-28T01:18:01;17.30;;;7.50;;
56567;SDS011;42456;49.956;20.004;2023-02-28T01:20:28;17.70;;;6.80;;
56567;SDS011;42456;49.956;20.004;2023-02-28T01:22:54;21.40;;;7.80;;
56567;SDS011;42456;49.956;20.004;2023-02-28T01:25:21;18.50;;;7.50;;
56567;SDS011;42456;49.956;20.004;2023-02-28T01:27:48;20.20;;;7.80;;
56567;SDS011;42456;49.956;20.004;2023-02-28T01:30:15;19.10;;;8.80;;
56567;SDS011;42456;49.956;20.004;2023-02-28T01:32:43;16.70;;;7.10;;
56567;SDS011;42456;49.956;20.004;2023-02-28T01:35:10;15.40;;;6.60;;
56567;SDS011;42456;49.956;20.004;2023-02-28T01:37:37;16.20;;;6.70;;
56567;SDS011;42456;49.956;20.004;2023-02-28T01:40:04;14.40;;;6.70;;
56567;SDS011;42456;49.956;20.004;2023-02-28T01:42:31;18.00;;;7.20;;
56567;SDS011;42456;49.956;20.004;2023-02-28T01:47:33;14.10;;;6.70;;
56567;SDS011;42456;49.956;20.004;2023-02-28T01:50:06;14.30;;;7.00;;
56567;SDS011;42456;49.956;20.004;2023-02-28T01:52:37;16.80;;;7.20;;
56567;SDS011;42456;49.956;20.004;2023-02-28T01:55:05;16.40;;;7.80;;
56567;SDS011;42456;49.956;20.004;2023-02-28T01:57:35;17.30;;;7.80;;
56567;SDS011;42456;49.956;20.004;2023-02-28T02:00:13;15.70;;;7.30;;
56567;SDS011;42456;49.956;20.004;2023-02-28T02:02:43;18.00;;;7.30;;
56567;SDS011;42456;49.956;20.004;2023-02-28T02:05:18;20.40;;;7.50;;
56567;SDS011;42456;49.956;20.004;2023-02-28T02:07:51;15.60;;;7.10;;
56567;SDS011;42456;49.956;20.004;2023-02-28T02:10:21;17.90;;;7.50;;
56567;SDS011;42456;49.956;20.004;2023-02-28T02:15:52;15.30;;;6.30;;
56567;SDS011;42456;49.956;20.004;2023-02-28T02:35:01;17.40;;;7.50;;
56567;SDS011;42456;49.956;20.004;2023-02-28T02:37:55;17.20;;;6.80;;
56567;SDS011;42456;49.956;20.004;2023-02-28T02:40:42;14.30;;;6.20;;
56567;SDS011;42456;49.956;20.004;2023-02-28T02:43:16;13.60;;;6.60;;
56567;SDS011;42456;49.956;20.004;2023-02-28T02:46:01;15.10;;;6.40;;
56567;SDS011;42456;49.956;20.004;2023-02-28T02:48:34;15.90;;;6.60;;
56567;SDS011;42456;49.956;20.004;2023-02-28T02:51:07;13.50;;;6.50;;
56567;SDS011;42456;49.956;20.004;2023-02-28T02:53:46;14.90;;;6.40;;
56567;SDS011;42456;49.956;20.004;2023-02-28T02:56:19;19.90;;;7.60;;
56567;SDS011;42456;49.956;20.004;2023-02-28T02:58:51;17.70;;;7.30;;
56567;SDS011;42456;49.956;20.004;2023-02-28T03:01:23;15.20;;;7.30;;
56567;SDS011;42456;49.956;20.004;2023-02-28T03:03:57;16.10;;;7.60;;
56567;SDS011;42456;49.956;20.004;2023-02-28T03:06:28;19.00;;;7.50;;
56567;SDS011;42456;49.956;20.004;2023-02-28T03:08:55;18.30;;;9.30;;
56567;SDS011;42456;49.956;20.004;2023-02-28T03:11:22;16.90;;;8.80;;
56567;SDS011;42456;49.956;20.004;2023-02-28T03:19:34;18.40;;;8.90;;
56567;SDS011;42456;49.956;20.004;2023-02-28T03:27:38;20.90;;;9.00;;
56567;SDS011;42456;49.956;20.004;2023-02-28T03:30:17;22.70;;;9.60;;
56567;SDS011;42456;49.956;20.004;2023-02-28T03:32:58;21.30;;;9.70;;
56567;SDS011;42456;49.956;20.004;2023-02-28T03:35:52;17.70;;;7.70;;
56567;SDS011;42456;49.956;20.004;2023-02-28T03:38:35;18.50;;;8.90;;
56567;SDS011;42456;49.956;20.004;2023-02-28T03:42:02;15.80;;;8.00;;
56567;SDS011;42456;49.956;20.004;2023-02-28T03:44:11;15.10;;;6.90;;
56567;SDS011;42456;49.956;20.004;2023-02-28T03:47:10;17.60;;;7.60;;
56567;SDS011;42456;49.956;20.004;2023-02-28T03:49:47;15.70;;;6.90;;
56567;SDS011;42456;49.956;20.004;2023-02-28T03:52:23;14.00;;;6.30;;
56567;SDS011;42456;49.956;20.004;2023-02-28T03:54:55;17.00;;;7.80;;
56567;SDS011;42456;49.956;20.004;2023-02-28T03:57:34;17.30;;;8.20;;
56567;SDS011;42456;49.956;20.004;2023-02-28T04:00:12;15.80;;;7.00;;
56567;SDS011;42456;49.956;20.004;2023-02-28T04:02:43;18.50;;;8.20;;
56567;SDS011;42456;49.956;20.004;2023-02-28T04:05:10;17.70;;;7.70;;
56567;SDS011;42456;49.956;20.004;2023-02-28T04:07:37;17.60;;;8.20;;
56567;SDS011;42456;49.956;20.004;2023-02-28T04:10:04;15.80;;;7.80;;
56567;SDS011;42456;49.956;20.004;2023-02-28T04:12:31;17.30;;;7.90;;
56567;SDS011;42456;49.956;20.004;2023-02-28T04:14:58;17.20;;;8.00;;
56567;SDS011;42456;49.956;20.004;2023-02-28T04:17:25;19.50;;;8.30;;
56567;SDS011;42456;49.956;20.004;2023-02-28T04:19:52;15.80;;;7.90;;
56567;SDS011;42456;49.956;20.004;2023-02-28T04:22:20;17.40;;;7.90;;
56567;SDS011;42456;49.956;20.004;2023-02-28T04:24:47;19.90;;;8.70;;
56567;SDS011;42456;49.956;20.004;2023-02-28T04:27:13;20.80;;;10.70;;
56567;SDS011;42456;49.956;20.004;2023-02-28T04:29:42;20.50;;;10.10;;
56567;SDS011;42456;49.956;20.004;2023-02-28T04:32:11;28.80;;;12.90;;
56567;SDS011;42456;49.956;20.004;2023-02-28T04:34:38;34.70;;;14.50;;
56567;SDS011;42456;49.956;20.004;2023-02-28T04:37:05;27.10;;;12.30;;
56567;SDS011;42456;49.956;20.004;2023-02-28T04:39:39;26.00;;;13.10;;
56567;SDS011;42456;49.956;20.004;2023-02-28T04:42:07;28.30;;;11.70;;
56567;SDS011;42456;49.956;20.004;2023-02-28T04:44:34;26.50;;;11.80;;
56567;SDS011;42456;49.956;20.004;2023-02-28T04:47:01;21.00;;;9.90;;
56567;SDS011;42456;49.956;20.004;2023-02-28T04:49:28;22.10;;;10.20;;
56567;SDS011;42456;49.956;20.004;2023-02-28T04:51:55;24.30;;;10.70;;
56567;SDS011;42456;49.956;20.004;2023-02-28T04:54:22;21.60;;;9.50;;
56567;SDS011;42456;49.956;20.004;2023-02-28T04:56:49;18.80;;;9.40;;
56567;SDS011;42456;49.956;20.004;2023-02-28T04:59:16;20.70;;;9.20;;
56567;SDS011;42456;49.956;20.004;2023-02-28T05:01:45;16.70;;;7.90;;
56567;SDS011;42456;49.956;20.004;2023-02-28T05:04:13;18.10;;;9.10;;
56567;SDS011;42456;49.956;20.004;2023-02-28T05:06:41;15.50;;;7.60;;
56567;SDS011;42456;49.956;20.004;2023-02-28T05:09:08;16.80;;;7.70;;
56567;SDS011;42456;49.956;20.004;2023-02-28T05:11:38;20.90;;;8.60;;
56567;SDS011;42456;49.956;20.004;2023-02-28T05:14:07;19.70;;;9.70;;
56567;SDS011;42456;49.956;20.004;2023-02-28T05:16:38;18.40;;;8.40;;
56567;SDS011;42456;49.956;20.004;2023-02-28T05:19:05;15.00;;;7.50;;
56567;SDS011;42456;49.956;20.004;2023-02-28T05:21:37;19.30;;;8.70;;
56567;SDS011;42456;49.956;20.004;2023-02-28T05:24:07;14.50;;;7.10;;
56567;SDS011;42456;49.956;20.004;2023-02-28T05:26:38;16.00;;;8.10;;
56567;SDS011;42456;49.956;20.004;2023-02-28T05:29:09;18.80;;;9.30;;
56567;SDS011;42456;49.956;20.004;2023-02-28T05:31:36;21.00;;;10.40;;
56567;SDS011;42456;49.956;20.004;2023-02-28T05:34:04;20.90;;;9.80;;
56567;SDS011;42456;49.956;20.004;2023-02-28T05:36:31;18.70;;;9.00;;
56567;SDS011;42456;49.956;20.004;2023-02-28T05:38:59;18.20;;;9.30;;
56567;SDS011;42456;49.956;20.004;2023-02-28T05:41:26;20.70;;;10.30;;
56567;SDS011;42456;49.956;20.004;2023-02-28T05:43:54;19.90;;;10.00;;
56567;SDS011;42456;49.956;20.004;2023-02-28T05:46:21;19.50;;;10.20;;
56567;SDS011;42456;49.956;20.004;2023-02-28T05:48:48;21.80;;;9.90;;
56567;SDS011;42456;49.956;20.004;2023-02-28T05:51:15;20.60;;;10.10;;
56567;SDS011;42456;49.956;20.004;2023-02-28T05:53:43;22.80;;;10.50;;
56567;SDS011;42456;49.956;20.004;2023-02-28T05:56:11;30.00;;;14.50;;
56567;SDS011;42456;49.956;20.004;2023-02-28T05:58:38;36.50;;;17.30;;
56567;SDS011;42456;49.956;20.004;2023-02-28T06:03:58;33.10;;;15.50;;
56567;SDS011;42456;49.956;20.004;2023-02-28T06:06:26;30.50;;;15.10;;
56567;SDS011;42456;49.956;20.004;2023-02-28T06:08:54;33.60;;;16.30;;
56567;SDS011;42456;49.956;20.004;2023-02-28T06:11:21;36.40;;;15.90;;
56567;SDS011;42456;49.956;20.004;2023-02-28T06:13:52;35.30;;;17.30;;
56567;SDS011;42456;49.956;20.004;2023-02-28T06:16:23;36.30;;;17.80;;
56567;SDS011;42456;49.956;20.004;2023-02-28T06:18:51;40.00;;;18.20;;
56567;SDS011;42456;49.956;20.004;2023-02-28T06:21:19;36.40;;;18.60;;
56567;SDS011;42456;49.956;20.004;2023-02-28T06:23:45;30.70;;;17.60;;
56567;SDS011;42456;49.956;20.004;2023-02-28T06:26:12;27.10;;;14.50;;
56567;SDS011;42456;49.956;20.004;2023-02-28T06:28:39;24.70;;;12.60;;
56567;SDS011;42456;49.956;20.004;2023-02-28T06:31:10;23.30;;;12.00;;
56567;SDS011;42456;49.956;20.004;2023-02-28T06:33:40;23.50;;;12.10;;
56567;SDS011;42456;49.956;20.004;2023-02-28T06:36:08;22.70;;;12.20;;
56567;SDS011;42456;49.956;20.004;2023-02-28T06:38:36;24.80;;;13.20;;
56567;SDS011;42456;49.956;20.004;2023-02-28T06:41:04;22.90;;;11.70;;
56567;SDS011;42456;49.956;20.004;2023-02-28T06:43:33;21.10;;;11.30;;
56567;SDS011;42456;49.956;20.004;2023-02-28T06:46:03;25.20;;;12.60;;
56567;SDS011;42456;49.956;20.004;2023-02-28T06:48:33;20.30;;;10.80;;
56567;SDS011;42456;49.956;20.004;2023-02-28T06:51:05;21.60;;;11.30;;
56567;SDS011;42456;49.956;20.004;2023-02-28T06:53:34;23.90;;;12.80;;
56567;SDS011;42456;49.956;20.004;2023-02-28T06:56:09;25.90;;;14.10;;
56567;SDS011;42456;49.956;20.004;2023-02-28T06:58:38;26.60;;;13.70;;
56567;SDS011;42456;49.956;20.004;2023-02-28T07:01:06;23.70;;;13.10;;
56567;SDS011;42456;49.956;20.004;2023-02-28T07:03:34;24.70;;;12.70;;
56567;SDS011;42456;49.956;20.004;2023-02-28T07:06:02;26.80;;;14.00;;
56567;SDS011;42456;49.956;20.004;2023-02-28T07:08:30;25.30;;;13.10;;
56567;SDS011;42456;49.956;20.004;2023-02-28T07:10:58;32.20;;;17.90;;
56567;SDS011;42456;49.956;20.004;2023-02-28T07:13:25;40.10;;;20.90;;
56567;SDS011;42456;49.956;20.004;2023-02-28T07:15:55;40.60;;;22.20;;
56567;SDS011;42456;49.956;20.004;2023-02-28T07:18:27;40.80;;;20.70;;
56567;SDS011;42456;49.956;20.004;2023-02-28T07:20:55;43.30;;;21.30;;
56567;SDS011;42456;49.956;20.004;2023-02-28T07:23:22;40.30;;;19.60;;
56567;SDS011;42456;49.956;20.004;2023-02-28T07:25:49;38.80;;;19.30;;
56567;SDS011;42456;49.956;20.004;2023-02-28T07:28:17;35.80;;;17.00;;
56567;SDS011;42456;49.956;20.004;2023-02-28T07:30:44;30.40;;;16.30;;
56567;SDS011;42456;49.956;20.004;2023-02-28T07:33:11;29.90;;;14.40;;
56567;SDS011;42456;49.956;20.004;2023-02-28T07:35:37;32.60;;;14.20;;
56567;SDS011;42456;49.956;20.004;2023-02-28T07:38:04;26.70;;;11.10;;
56567;SDS011;42456;49.956;20.004;2023-02-28T07:40:34;31.50;;;15.50;;
56567;SDS011;42456;49.956;20.004;2023-02-28T07:43:02;30.00;;;14.00;;
56567;SDS011;42456;49.956;20.004;2023-02-28T07:45:30;29.10;;;13.90;;
56567;SDS011;42456;49.956;20.004;2023-02-28T07:48:00;25.20;;;12.00;;
56567;SDS011;42456;49.956;20.004;2023-02-28T07:50:28;24.70;;;11.50;;
56567;SDS011;42456;49.956;20.004;2023-02-28T07:52:58;24.80;;;11.00;;
56567;SDS011;42456;49.956;20.004;2023-02-28T07:55:25;26.00;;;12.90;;
56567;SDS011;42456;49.956;20.004;2023-02-28T07:57:52;20.60;;;9.50;;
56567;SDS011;42456;49.956;20.004;2023-02-28T08:00:20;18.30;;;9.10;;
56567;SDS011;42456;49.956;20.004;2023-02-28T08:02:47;20.10;;;9.20;;
56567;SDS011;42456;49.956;20.004;2023-02-28T08:05:14;18.30;;;8.20;;
56567;SDS011;42456;49.956;20.004;2023-02-28T08:07:40;18.50;;;8.10;;
56567;SDS011;42456;49.956;20.004;2023-02-28T08:10:07;18.20;;;8.30;;
56567;SDS011;42456;49.956;20.004;2023-02-28T08:12:36;15.10;;;7.10;;
56567;SDS011;42456;49.956;20.004;2023-02-28T08:15:03;17.30;;;7.70;;
56567;SDS011;42456;49.956;20.004;2023-02-28T08:17:30;15.50;;;7.70;;
56567;SDS011;42456;49.956;20.004;2023-02-28T08:20:00;14.50;;;6.40;;
56567;SDS011;42456;49.956;20.004;2023-02-28T08:22:27;15.40;;;7.10;;
56567;SDS011;42456;49.956;20.004;2023-02-28T08:24:54;15.50;;;6.50;;
56567;SDS011;42456;49.956;20.004;2023-02-28T08:27:20;13.70;;;5.70;;
56567;SDS011;42456;49.956;20.004;2023-02-28T08:29:47;15.30;;;5.90;;
56567;SDS011;42456;49.956;20.004;2023-02-28T08:32:14;14.70;;;5.90;;
56567;SDS011;42456;49.956;20.004;2023-02-28T08:34:54;12.20;;;5.50;;
56567;SDS011;42456;49.956;20.004;2023-02-28T08:37:21;11.70;;;5.60;;
56567;SDS011;42456;49.956;20.004;2023-02-28T08:39:48;14.50;;;6.30;;
56567;SDS011;42456;49.956;20.004;2023-02-28T08:42:15;12.80;;;6.00;;
56567;SDS011;42456;49.956;20.004;2023-02-28T08:44:42;11.20;;;5.40;;
56567;SDS011;42456;49.956;20.004;2023-02-28T08:47:09;12.00;;;5.00;;
56567;SDS011;42456;49.956;20.004;2023-02-28T08:49:36;12.40;;;5.70;;
56567;SDS011;42456;49.956;20.004;2023-02-28T08:52:03;14.00;;;6.20;;
56567;SDS011;42456;49.956;20.004;2023-02-28T08:54:30;10.60;;;5.40;;
56567;SDS011;42456;49.956;20.004;2023-02-28T08:56:57;12.30;;;5.80;;
56567;SDS011;42456;49.956;20.004;2023-02-28T08:59:24;12.10;;;6.00;;
56567;SDS011;42456;49.956;20.004;2023-02-28T09:01:51;15.10;;;6.50;;
56567;SDS011;42456;49.956;20.004;2023-02-28T09:04:18;14.00;;;6.40;;
56567;SDS011;42456;49.956;20.004;2023-02-28T09:06:46;16.60;;;7.10;;
56567;SDS011;42456;49.956;20.004;2023-02-28T09:09:15;14.70;;;6.50;;
56567;SDS011;42456;49.956;20.004;2023-02-28T09:11:42;14.40;;;6.80;;
56567;SDS011;42456;49.956;20.004;2023-02-28T09:14:09;13.30;;;6.10;;
56567;SDS011;42456;49.956;20.004;2023-02-28T09:16:36;16.90;;;7.50;;
56567;SDS011;42456;49.956;20.004;2023-02-28T09:19:04;16.00;;;6.70;;
56567;SDS011;42456;49.956;20.004;2023-02-28T09:21:30;15.70;;;7.00;;
56567;SDS011;42456;49.956;20.004;2023-02-28T09:23:57;12.60;;;5.70;;
56567;SDS011;42456;49.956;20.004;2023-02-28T09:26:25;11.50;;;5.50;;
56567;SDS011;42456;49.956;20.004;2023-02-28T09:29:08;14.10;;;6.30;;
56567;SDS011;42456;49.956;20.004;2023-02-28T09:31:35;16.30;;;6.70;;
56567;SDS011;42456;49.956;20.004;2023-02-28T09:34:03;12.60;;;6.10;;
56567;SDS011;42456;49.956;20.004;2023-02-28T09:36:30;13.20;;;6.50;;
56567;SDS011;42456;49.956;20.004;2023-02-28T09:39:09;14.50;;;6.10;;
56567;SDS011;42456;49.956;20.004;2023-02-28T09:41:41;15.80;;;6.40;;
56567;SDS011;42456;49.956;20.004;2023-02-28T09:46:53;14.60;;;7.00;;
56567;SDS011;42456;49.956;20.004;2023-02-28T09:49:43;15.30;;;7.10;;
56567;SDS011;42456;49.956;20.004;2023-02-28T09:52:14;13.20;;;6.30;;
56567;SDS011;42456;49.956;20.004;2023-02-28T09:54:45;15.20;;;6.40;;
56567;SDS011;42456;49.956;20.004;2023-02-28T09:57:15;15.80;;;7.20;;
56567;SDS011;42456;49.956;20.004;2023-02-28T10:05:41;14.60;;;6.60;;
56567;SDS011;42456;49.956;20.004;2023-02-28T10:08:18;13.00;;;5.70;;
56567;SDS011;42456;49.956;20.004;2023-02-28T10:10:52;18.30;;;8.00;;
56567;SDS011;42456;49.956;20.004;2023-02-28T10:16:20;14.90;;;6.80;;
56567;SDS011;42456;49.956;20.004;2023-02-28T10:18:53;16.50;;;7.50;;
56567;SDS011;42456;49.956;20.004;2023-02-28T10:21:28;15.80;;;7.80;;
56567;SDS011;42456;49.956;20.004;2023-02-28T10:24:04;15.00;;;7.30;;
56567;SDS011;42456;49.956;20.004;2023-02-28T10:29:19;16.60;;;8.10;;
56567;SDS011;42456;49.956;20.004;2023-02-28T10:31:45;15.80;;;7.20;;
56567;SDS011;42456;49.956;20.004;2023-02-28T10:34:13;15.90;;;6.70;;
56567;SDS011;42456;49.956;20.004;2023-02-28T10:36:40;16.00;;;7.10;;
56567;SDS011;42456;49.956;20.004;2023-02-28T10:42:05;12.10;;;5.90;;
56567;SDS011;42456;49.956;20.004;2023-02-28T10:44:46;12.80;;;6.00;;
56567;SDS011;42456;49.956;20.004;2023-02-28T10:47:16;12.50;;;6.20;;
56567;SDS011;42456;49.956;20.004;2023-02-28T10:49:49;13.30;;;6.50;;
56567;SDS011;42456;49.956;20.004;2023-02-28T10:58:00;15.30;;;7.30;;
56567;SDS011;42456;49.956;20.004;2023-02-28T11:00:31;14.70;;;7.10;;
56567;SDS011;42456;49.956;20.004;2023-02-28T11:03:01;12.50;;;6.60;;
56567;SDS011;42456;49.956;20.004;2023-02-28T11:05:48;14.10;;;5.80;;
56567;SDS011;42456;49.956;20.004;2023-02-28T11:08:16;15.30;;;7.10;;
56567;SDS011;42456;49.956;20.004;2023-02-28T11:11:05;14.50;;;6.90;;
56567;SDS011;42456;49.956;20.004;2023-02-28T11:13:33;18.70;;;8.30;;
56567;SDS011;42456;49.956;20.004;2023-02-28T11:16:02;15.60;;;7.80;;
56567;SDS011;42456;49.956;20.004;2023-02-28T11:21:01;15.00;;;6.70;;
56567;SDS011;42456;49.956;20.004;2023-02-28T11:23:30;14.50;;;7.20;;
56567;SDS011;42456;49.956;20.004;2023-02-28T11:26:02;11.90;;;5.80;;
56567;SDS011;42456;49.956;20.004;2023-02-28T11:28:32;17.50;;;7.60;;
56567;SDS011;42456;49.956;20.004;2023-02-28T11:33:45;14.10;;;7.30;;
56567;SDS011;42456;49.956;20.004;2023-02-28T11:36:20;14.00;;;7.10;;
56567;SDS011;42456;49.956;20.004;2023-02-28T11:38:54;18.10;;;7.90;;
56567;SDS011;42456;49.956;20.004;2023-02-28T11:52:55;15.90;;;7.80;;
56567;SDS011;42456;49.956;20.004;2023-02-28T11:55:27;16.40;;;7.40;;
56567;SDS011;42456;49.956;20.004;2023-02-28T11:58:14;16.30;;;7.60;;
56567;SDS011;42456;49.956;20.004;2023-02-28T12:03:53;14.20;;;6.00;;
56567;SDS011;42456;49.956;20.004;2023-02-28T12:07:17;12.80;;;6.90;;
56567;SDS011;42456;49.956;20.004;2023-02-28T12:12:15;19.10;;;7.70;;
56567;SDS011;42456;49.956;20.004;2023-02-28T12:15:05;12.80;;;6.70;;
56567;SDS011;42456;49.956;20.004;2023-02-28T12:28:20;12.70;;;6.00;;
56567;SDS011;42456;49.956;20.004;2023-02-28T12:33:42;13.60;;;6.40;;
56567;SDS011;42456;49.956;20.004;2023-02-28T12:36:18;12.60;;;6.10;;
56567;SDS011;42456;49.956;20.004;2023-02-28T12:38:53;16.50;;;7.10;;
56567;SDS011;42456;49.956;20.004;2023-02-28T12:47:15;14.20;;;6.30;;
56567;SDS011;42456;49.956;20.004;2023-02-28T12:49:50;17.10;;;5.80;;
56567;SDS011;42456;49.956;20.004;2023-02-28T12:52:27;10.90;;;5.80;;
56567;SDS011;42456;49.956;20.004;2023-02-28T12:57:57;13.90;;;6.00;;
56567;SDS011;42456;49.956;20.004;2023-02-28T13:00:35;10.40;;;5.30;;
56567;SDS011;42456;49.956;20.004;2023-02-28T13:03:14;10.70;;;5.40;;
56567;SDS011;42456;49.956;20.004;2023-02-28T13:13:58;13.90;;;6.30;;
56567;SDS011;42456;49.956;20.004;2023-02-28T13:16:27;13.90;;;6.00;;
56567;SDS011;42456;49.956;20.004;2023-02-28T13:19:07;10.90;;;5.60;;
56567;SDS011;42456;49.956;20.004;2023-02-28T13:21:41;13.90;;;6.50;;
56567;SDS011;42456;49.956;20.004;2023-02-28T13:24:11;12.70;;;6.00;;
56567;SDS011;42456;49.956;20.004;2023-02-28T13:29:44;12.40;;;6.20;;
56567;SDS011;42456;49.956;20.004;2023-02-28T13:35:11;15.80;;;6.70;;
56567;SDS011;42456;49.956;20.004;2023-02-28T13:39:52;13.40;;;6.60;;
56567;SDS011;42456;49.956;20.004;2023-02-28T13:47:33;12.00;;;6.30;;
56567;SDS011;42456;49.956;20.004;2023-02-28T13:55:34;14.70;;;7.00;;
56567;SDS011;42456;49.956;20.004;2023-02-28T14:06:46;11.00;;;5.60;;
56567;SDS011;42456;49.956;20.004;2023-02-28T14:11:57;16.50;;;7.30;;
56567;SDS011;42456;49.956;20.004;2023-02-28T14:17:14;14.90;;;6.60;;
56567;SDS011;42456;49.956;20.004;2023-02-28T14:19:44;13.80;;;6.50;;
56567;SDS011;42456;49.956;20.004;2023-02-28T14:27:18;16.40;;;7.30;;
56567;SDS011;42456;49.956;20.004;2023-02-28T14:30:15;12.80;;;6.10;;
56567;SDS011;42456;49.956;20.004;2023-02-28T14:33:04;12.70;;;6.40;;
56567;SDS011;42456;49.956;20.004;2023-02-28T14:40:54;11.50;;;5.90;;
56567;SDS011;42456;49.956;20.004;2023-02-28T14:43:27;11.30;;;5.50;;
56567;SDS011;42456;49.956;20.004;2023-02-28T14:45:55;16.10;;;6.70;;
56567;SDS011;42456;49.956;20.004;2023-02-28T14:48:27;13.80;;;6.40;;
56567;SDS011;42456;49.956;20.004;2023-02-28T14:50:58;13.70;;;5.70;;
56567;SDS011;42456;49.956;20.004;2023-02-28T14:53:30;11.70;;;5.70;;
56567;SDS011;42456;49.956;20.004;2023-02-28T14:56:02;12.30;;;6.10;;
56567;SDS011;42456;49.956;20.004;2023-02-28T14:58:31;15.20;;;6.70;;
56567;SDS011;42456;49.956;20.004;2023-02-28T15:01:00;14.40;;;6.20;;
56567;SDS011;42456;49.956;20.004;2023-02-28T15:03:30;15.60;;;7.20;;
56567;SDS011;42456;49.956;20.004;2023-02-28T15:06:04;16.50;;;7.00;;
56567;SDS011;42456;49.956;20.004;2023-02-28T15:08:32;14.50;;;7.40;;
56567;SDS011;42456;49.956;20.004;2023-02-28T15:11:11;14.00;;;6.60;;
56567;SDS011;42456;49.956;20.004;2023-02-28T15:13:47;16.70;;;7.40;;
56567;SDS011;42456;49.956;20.004;2023-02-28T15:16:17;14.00;;;6.60;;
56567;SDS011;42456;49.956;20.004;2023-02-28T15:23:49;15.90;;;7.40;;
56567;SDS011;42456;49.956;20.004;2023-02-28T15:26:20;15.80;;;7.20;;
56567;SDS011;42456;49.956;20.004;2023-02-28T15:28:52;19.60;;;9.70;;
56567;SDS011;42456;49.956;20.004;2023-02-28T15:31:29;14.50;;;6.50;;
56567;SDS011;42456;49.956;20.004;2023-02-28T15:34:19;14.90;;;7.00;;
56567;SDS011;42456;49.956;20.004;2023-02-28T15:37:06;14.40;;;6.80;;
56567;SDS011;42456;49.956;20.004;2023-02-28T15:39:47;15.90;;;6.80;;
56567;SDS011;42456;49.956;20.004;2023-02-28T15:42:21;15.40;;;7.40;;
56567;SDS011;42456;49.956;20.004;2023-02-28T15:44:50;15.30;;;8.00;;
56567;SDS011;42456;49.956;20.004;2023-02-28T15:47:20;17.30;;;7.90;;
56567;SDS011;42456;49.956;20.004;2023-02-28T15:49:50;14.50;;;7.30;;
56567;SDS011;42456;49.956;20.004;2023-02-28T15:52:28;17.40;;;8.00;;
56567;SDS011;42456;49.956;20.004;2023-02-28T15:55:11;15.80;;;7.40;;
56567;SDS011;42456;49.956;20.004;2023-02-28T15:57:49;14.60;;;7.40;;
56567;SDS011;42456;49.956;20.004;2023-02-28T16:00:23;17.00;;;7.20;;
56567;SDS011;42456;49.956;20.004;2023-02-28T16:02:52;16.20;;;7.70;;
56567;SDS011;42456;49.956;20.004;2023-02-28T16:05:26;15.30;;;7.00;;
56567;SDS011;42456;49.956;20.004;2023-02-28T16:07:59;14.40;;;7.10;;
56567;SDS011;42456;49.956;20.004;2023-02-28T16:10:29;17.30;;;8.30;;
56567;SDS011;42456;49.956;20.004;2023-02-28T16:12:56;18.70;;;8.40;;
56567;SDS011;42456;49.956;20.004;2023-02-28T16:15:26;18.20;;;8.80;;
56567;SDS011;42456;49.956;20.004;2023-02-28T16:17:55;17.80;;;8.40;;
56567;SDS011;42456;49.956;20.004;2023-02-28T16:20:26;16.30;;;8.30;;
56567;SDS011;42456;49.956;20.004;2023-02-28T16:22:56;17.70;;;8.50;;
56567;SDS011;42456;49.956;20.004;2023-02-28T16:25:23;20.80;;;9.60;;
56567;SDS011;42456;49.956;20.004;2023-02-28T16:27:59;23.00;;;11.30;;
56567;SDS011;42456;49.956;20.004;2023-02-28T16:30:27;18.20;;;9.40;;
56567;SDS011;42456;49.956;20.004;2023-02-28T16:32:59;24.70;;;11.40;;
56567;SDS011;42456;49.956;20.004;2023-02-28T16:35:26;21.80;;;9.70;;
56567;SDS011;42456;49.956;20.004;2023-02-28T16:37:53;22.90;;;9.80;;
56567;SDS011;42456;49.956;20.004;2023-02-28T16:40:22;20.50;;;8.20;;
56567;SDS011;42456;49.956;20.004;2023-02-28T16:42:55;17.00;;;8.70;;
56567;SDS011;42456;49.956;20.004;2023-02-28T16:45:26;17.30;;;8.70;;
56567;SDS011;42456;49.956;20.004;2023-02-28T16:47:55;16.50;;;8.40;;
56567;SDS011;42456;49.956;20.004;2023-02-28T16:50:24;16.70;;;8.70;;
56567;SDS011;42456;49.956;20.004;2023-02-28T16:52:55;16.70;;;8.30;;
56567;SDS011;42456;49.956;20.004;2023-02-28T16:55:22;19.10;;;8.90;;
56567;SDS011;42456;49.956;20.004;2023-02-28T16:57:51;19.80;;;9.10;;
56567;SDS011;42456;49.956;20.004;2023-02-28T17:00:26;19.10;;;8.70;;
56567;SDS011;42456;49.956;20.004;2023-02-28T17:06:05;19.10;;;9.60;;
56567;SDS011;42456;49.956;20.004;2023-02-28T17:08:33;19.50;;;10.30;;
56567;SDS011;42456;49.956;20.004;2023-02-28T17:11:13;24.40;;;12.50;;
56567;SDS011;42456;49.956;20.004;2023-02-28T17:13:40;24.20;;;12.50;;
56567;SDS011;42456;49.956;20.004;2023-02-28T17:16:19;23.80;;;12.30;;
56567;SDS011;42456;49.956;20.004;2023-02-28T17:18:54;25.60;;;12.60;;
56567;SDS011;42456;49.956;20.004;2023-02-28T17:21:24;24.30;;;12.40;;
56567;SDS011;42456;49.956;20.004;2023-02-28T17:23:51;29.70;;;13.70;;